Time;durP1;ratioP1;P1;durP2;ratioP2;P2;SDS_P1;SDS_P2;PMS_P1;PMS_P2;Temp;Humidity;BMP_temperature;BMP_pressure;BME280_temperature;BME280_humidity;BME280_pressure;Samples;Min_cycle;Max_cycle;Signal;HPM_P1;HPM_P2
2023/10/18 00:03:56;;;;;;;;;;;6.50;99.90;;;;;;21228471;27;19920;-79
2023/10/18 00:13:57;;;;;;;;;;;6.50;99.90;;;;;;21214660;27;19911;-79
2023/10/18 00:23:57;;;;;;;;;;;6.30;99.90;;;;;;21202891;27;20010;-80
2023/10/18 00:33:58;;;;;;;;;;;6.30;99.90;;;;;;21188892;27;20370;-80
2023/10/18 00:43:59;;;;;;;;;;;6.20;99.90;;;;;;21215622;27;19920;-79
2023/10/18 00:53:59;;;;;;;;;;;6.30;99.90;;;;;;21199974;27;19916;-79
2023/10/18 01:04:04;;;;;;;;;;;6.20;99.90;;;;;;21199736;27;19915;-79
2023/10/18 01:14:06;;;;;;;;;;;6.10;99.90;;;;;;21167874;27;20317;-79
2023/10/18 01:24:13;;;;;;;;;;;6.00;99.90;;;;;;21200180;27;19959;-79
2023/10/18 01:34:14;;;;;;;;;;;6.00;99.90;;;;;;21176141;27;19923;-79
2023/10/18 01:44:30;;;;;;;;;;;6.00;99.90;;;;;;21182246;27;19916;-79
2023/10/18 01:54:32;;;;;;;;;;;5.80;99.90;;;;;;21198427;27;19912;-79
2023/10/18 02:04:37;;;;;;;;;;;5.50;99.90;;;;;;21193856;28;19923;-79
2023/10/18 02:14:38;;;;;;;;;;;5.50;99.90;;;;;;21154101;28;19912;-79
2023/10/18 02:24:42;;;;;;;;;;;5.70;99.90;;;;;;21214358;27;19923;-79
2023/10/18 02:34:43;;;;;;;;;;;5.90;99.90;;;;;;21231414;27;19918;-79
2023/10/18 02:44:44;;;;;;;;;;;6.00;99.90;;;;;;21197866;27;19916;-79
2023/10/18 02:54:48;;;;;;;;;;;6.10;99.90;;;;;;21215040;27;19918;-79
2023/10/18 03:04:49;;;;;;;;;;;6.20;99.90;;;;;;21207833;27;19920;-79
2023/10/18 03:14:56;;;;;;;;;;;6.30;99.90;;;;;;21206076;27;19933;-80
2023/10/18 03:24:59;;;;;;;;;;;6.40;99.90;;;;;;21217396;27;19915;-79
2023/10/18 03:34:59;;;;;;;;;;;6.30;99.90;;;;;;21204966;27;19922;-80
2023/10/18 03:45:21;;;;;;;;;;;6.10;99.90;;;;;;21216611;27;20302;-79
2023/10/18 03:55:36;;;;;;;;;;;6.10;99.90;;;;;;21180687;27;20010;-79
2023/10/18 04:05:44;;;;;;;;;;;6.10;99.90;;;;;;21190448;27;19969;-79
2023/10/18 04:15:45;;;;;;;;;;;6.10;99.90;;;;;;21185269;27;19998;-79
2023/10/18 04:25:57;;;;;;;;;;;6.10;99.90;;;;;;21182089;27;19972;-79
2023/10/18 04:36:04;;;;;;;;;;;6.30;99.90;;;;;;21181510;27;19918;-78
2023/10/18 04:46:14;;;;;;;;;;;6.20;99.90;;;;;;21171880;27;19923;-78
2023/10/18 04:56:14;;;;;;;;;;;6.10;99.90;;;;;;21140974;27;19964;-79
2023/10/18 05:06:16;;;;;;;;;;;6.20;99.90;;;;;;21184333;27;19912;-79
2023/10/18 05:16:17;;;;;;;;;;;6.10;99.90;;;;;;21188174;27;19920;-79
2023/10/18 05:26:17;;;;;;;;;;;6.20;99.90;;;;;;21176675;27;20315;-79
2023/10/18 05:46:20;;;;;;;;;;;6.40;99.90;;;;;;21162019;27;19955;-80
2023/10/18 05:56:24;;;;;;;;;;;6.50;99.90;;;;;;21168968;28;19935;-78
2023/10/18 06:06:25;;;;;;;;;;;6.60;99.90;;;;;;21183127;28;19912;-79
2023/10/18 06:16:33;;;;;;;;;;;6.60;99.90;;;;;;21194850;28;20298;-79
2023/10/18 06:26:33;;;;;;;;;;;6.60;99.90;;;;;;21191328;28;19940;-79
2023/10/18 06:36:34;;;;;;;;;;;6.60;99.90;;;;;;21185316;28;20255;-79
2023/10/18 06:46:38;;;;;;;;;;;6.80;99.90;;;;;;21160517;27;19912;-80
2023/10/18 06:56:48;;;;;;;;;;;6.90;99.90;;;;;;21169055;28;19915;-79
2023/10/18 07:06:49;;;;;;;;;;;7.10;99.90;;;;;;21172801;27;19918;-82
2023/10/18 07:27:29;;;;;;;;;;;7.20;99.90;;;;;;21182632;27;19935;-79
2023/10/18 07:37:56;;;;;;;;;;;7.10;99.90;;;;;;21206325;27;19916;-80
2023/10/18 07:47:59;;;;;;;;;;;7.20;99.90;;;;;;21184022;27;20424;-79
2023/10/18 07:58:33;;;;;;;;;;;7.40;99.90;;;;;;21179063;27;19968;-78
2023/10/18 08:08:41;;;;;;;;;;;7.50;99.90;;;;;;21161395;27;20417;-79
2023/10/18 08:18:52;;;;;;;;;;;7.70;99.90;;;;;;21160023;27;19923;-79
2023/10/18 08:28:53;;;;;;;;;;;7.60;99.90;;;;;;21174446;27;19923;-79
2023/10/18 08:38:57;;;;;;;;;;;7.80;99.90;;;;;;21170403;27;19940;-79
2023/10/18 08:48:59;;;;;;;;;;;8.00;99.90;;;;;;21194354;27;20004;-80
2023/10/18 08:59:10;;;;;;;;;;;8.20;99.90;;;;;;21188279;27;19923;-80
2023/10/18 09:09:46;;;;;;;;;;;8.20;99.90;;;;;;21164502;27;19923;-81
2023/10/18 09:19:53;;;;;;;;;;;8.30;99.90;;;;;;21159812;27;19952;-79
2023/10/18 09:29:53;;;;;;;;;;;8.40;99.90;;;;;;21153096;27;20280;-80
2023/10/18 09:39:56;;;;;;;;;;;8.50;99.90;;;;;;21148841;27;19915;-80
2023/10/18 09:50:23;;;;;;;;;;;8.70;99.90;;;;;;21152067;27;19915;-80
2023/10/18 10:00:50;;;;;;;;;;;8.80;99.90;;;;;;21158814;28;19924;-79
2023/10/18 10:10:52;;;;;;;;;;;9.30;99.90;;;;;;21144412;28;19924;-80
2023/10/18 10:20:54;;;;;;;;;;;9.80;99.90;;;;;;21150658;27;19915;-78
2023/10/18 10:30:56;;;;;;;;;;;10.10;99.90;;;;;;21145229;27;19915;-80
2023/10/18 10:51:24;;;;;;;;;;;11.40;99.90;;;;;;21165087;27;19967;-80
2023/10/18 11:02:06;;;;;;;;;;;10.80;99.90;;;;;;21171892;27;19938;-80
2023/10/18 11:12:26;;;;;;;;;;;10.90;99.90;;;;;;21176948;27;19912;-80
2023/10/18 11:22:41;;;;;;;;;;;10.90;99.90;;;;;;21166615;27;19920;-79
2023/10/18 11:32:53;;;;;;;;;;;10.60;99.90;;;;;;21187359;27;19995;-81
2023/10/18 11:43:20;;;;;;;;;;;10.90;99.90;;;;;;21161574;27;19916;-80
2023/10/18 11:53:26;;;;;;;;;;;10.80;99.90;;;;;;21154201;27;19915;-79
2023/10/18 12:03:27;;;;;;;;;;;10.70;99.90;;;;;;21165546;27;19920;-78
2023/10/18 12:13:33;;;;;;;;;;;10.50;99.90;;;;;;21160216;27;19919;-78
2023/10/18 12:23:40;;;;;;;;;;;10.40;99.90;;;;;;21169498;27;19916;-79
2023/10/18 12:33:41;;;;;;;;;;;10.40;99.90;;;;;;21176669;27;19915;-80
2023/10/18 12:43:44;;;;;;;;;;;10.30;99.90;;;;;;21168795;27;20089;-80
2023/10/18 12:53:56;;;;;;;;;;;10.40;99.90;;;;;;21159797;27;19995;-79
2023/10/18 13:04:08;;;;;;;;;;;10.30;99.90;;;;;;21165163;27;20389;-79
2023/10/18 13:24:55;;;;;;;;;;;10.30;99.90;;;;;;21179109;27;20366;-81
2023/10/18 13:34:56;;;;;;;;;;;10.50;99.90;;;;;;21190382;27;20300;-81
2023/10/18 13:44:57;;;;;;;;;;;10.40;99.90;;;;;;21159552;27;19958;-82
2023/10/18 13:55:26;;;;;;;;;;;10.50;99.90;;;;;;21179593;27;21377;-81
2023/10/18 14:05:30;;;;;;;;;;;10.40;99.90;;;;;;21175757;28;19966;-80
2023/10/18 14:15:34;;;;;;;;;;;10.30;99.90;;;;;;21204415;27;20023;-80
2023/10/18 14:25:37;;;;;;;;;;;10.30;99.90;;;;;;21186608;27;20294;-84
2023/10/18 14:35:38;;;;;;;;;;;10.30;99.90;;;;;;21190231;27;19923;-80
2023/10/18 14:45:41;;;;;;;;;;;10.30;99.90;;;;;;21197435;27;19915;-80
2023/10/18 14:55:43;;;;;;;;;;;10.40;99.90;;;;;;21211723;27;19912;-83
2023/10/18 15:05:43;;;;;;;;;;;10.40;99.90;;;;;;21213244;27;19922;-80
2023/10/18 15:15:47;;;;;;;;;;;10.40;99.90;;;;;;21179379;27;20371;-80
2023/10/18 15:25:47;;;;;;;;;;;10.30;99.90;;;;;;21187726;27;19924;-82
2023/10/18 15:35:49;;;;;;;;;;;10.40;99.90;;;;;;21199777;27;20369;-81
2023/10/18 15:45:50;;;;;;;;;;;10.50;99.90;;;;;;21200272;27;20003;-82
2023/10/18 15:55:54;;;;;;;;;;;10.40;99.90;;;;;;21199679;27;19918;-79
2023/10/18 16:06:12;;;;;;;;;;;10.30;99.90;;;;;;21184430;27;20010;-80
2023/10/18 16:16:14;;;;;;;;;;;10.20;99.90;;;;;;21176268;27;19966;-82
2023/10/18 16:26:37;;;;;;;;;;;10.10;99.90;;;;;;21187171;27;19971;-79
2023/10/18 16:36:38;;;;;;;;;;;10.10;99.90;;;;;;21198398;27;19919;-79
2023/10/18 16:46:42;;;;;;;;;;;10.10;99.90;;;;;;21130853;27;20333;-80
2023/10/18 16:56:47;;;;;;;;;;;9.90;99.90;;;;;;21154988;27;19912;-81
2023/10/18 17:06:56;;;;;;;;;;;9.80;99.90;;;;;;21123507;27;19911;-80
2023/10/18 17:16:59;;;;;;;;;;;9.80;99.90;;;;;;21153628;27;19927;-79
2023/10/18 17:27:00;;;;;;;;;;;9.80;99.90;;;;;;21157108;27;19916;-79
2023/10/18 17:37:04;;;;;;;;;;;9.80;99.90;;;;;;21160880;27;20271;-80
2023/10/18 17:47:17;;;;;;;;;;;9.80;99.90;;;;;;21152819;27;19959;-79
2023/10/18 17:57:18;;;;;;;;;;;9.90;99.90;;;;;;21151727;27;19943;-79
2023/10/18 18:07:26;;;;;;;;;;;9.90;99.90;;;;;;21140168;28;20006;-80
2023/10/18 18:17:29;;;;;;;;;;;9.80;99.90;;;;;;21204366;27;19916;-81
2023/10/18 18:27:30;;;;;;;;;;;9.70;99.90;;;;;;21181256;28;19915;-81
2023/10/18 18:37:31;;;;;;;;;;;9.70;99.90;;;;;;21190769;27;19970;-81
2023/10/18 18:47:31;;;;;;;;;;;9.70;99.90;;;;;;21196657;28;19915;-79
2023/10/18 18:57:33;;;;;;;;;;;9.80;99.90;;;;;;21200662;27;19916;-82
2023/10/18 19:07:34;;;;;;;;;;;9.90;99.90;;;;;;21218455;27;19942;-81
2023/10/18 19:17:35;;;;;;;;;;;9.90;99.90;;;;;;21206723;27;19923;-80
2023/10/18 19:27:36;;;;;;;;;;;9.80;99.90;;;;;;21180686;27;19915;-82
2023/10/18 19:37:38;;;;;;;;;;;9.80;99.90;;;;;;21198991;27;19920;-80
2023/10/18 19:47:39;;;;;;;;;;;9.70;99.90;;;;;;21205481;27;19912;-80
2023/10/18 19:57:48;;;;;;;;;;;9.70;99.90;;;;;;21193851;27;19915;-81
2023/10/18 20:07:51;;;;;;;;;;;9.80;99.90;;;;;;21204333;27;20006;-81
2023/10/18 20:17:54;;;;;;;;;;;9.80;99.90;;;;;;21188199;27;20037;-81
2023/10/18 20:27:56;;;;;;;;;;;9.70;99.90;;;;;;21181721;27;19919;-80
2023/10/18 20:37:56;;;;;;;;;;;9.70;99.90;;;;;;21187053;27;20389;-80
2023/10/18 20:47:59;;;;;;;;;;;9.70;99.90;;;;;;21166228;27;19920;-81
2023/10/18 20:58:07;;;;;;;;;;;9.80;99.90;;;;;;21176347;27;20030;-81
2023/10/18 21:08:11;;;;;;;;;;;9.70;99.90;;;;;;21156296;27;20374;-82
2023/10/18 21:18:12;;;;;;;;;;;9.70;99.90;;;;;;21192398;27;19929;-82
2023/10/18 21:28:13;;;;;;;;;;;9.80;99.90;;;;;;21204941;27;19919;-82
2023/10/18 21:38:14;;;;;;;;;;;9.80;99.90;;;;;;21204141;27;19985;-80
2023/10/18 21:48:16;;;;;;;;;;;9.80;99.90;;;;;;21204504;27;19919;-80
2023/10/18 21:58:16;;;;;;;;;;;9.80;99.90;;;;;;21187804;27;19916;-81
2023/10/18 22:08:17;;;;;;;;;;;9.90;99.90;;;;;;21188157;28;19984;-83
2023/10/18 22:18:19;;;;;;;;;;;9.90;99.90;;;;;;21181678;28;19931;-81
2023/10/18 22:28:21;;;;;;;;;;;9.90;99.90;;;;;;21175822;27;20003;-82
2023/10/18 22:38:23;;;;;;;;;;;9.80;99.90;;;;;;21202240;27;19922;-81
2023/10/18 22:48:24;;;;;;;;;;;9.90;99.90;;;;;;21184060;27;19912;-83
2023/10/18 22:58:26;;;;;;;;;;;9.80;99.90;;;;;;21217025;27;19915;-83
2023/10/18 23:08:36;;;;;;;;;;;9.70;99.90;;;;;;21219464;27;19911;-81
2023/10/18 23:18:36;;;;;;;;;;;9.60;99.90;;;;;;21191231;27;19920;-81
2023/10/18 23:28:45;;;;;;;;;;;9.60;99.90;;;;;;21226268;27;19972;-81
2023/10/18 23:38:46;;;;;;;;;;;9.60;99.90;;;;;;21182756;27;19915;-81
2023/10/18 23:58:50;;;;;;;;;;;9.60;99.90;;;;;;21217987;27;19922;-81
